Time;durP1;ratioP1;P1;durP2;ratioP2;P2;SDS_P1;SDS_P2;PMS_P1;PMS_P2;Temp;Humidity;BMP_temperature;BMP_pressure;BME280_temperature;BME280_humidity;BME280_pressure;Samples;Min_cycle;Max_cycle;Signal;HPM_P1;HPM_P2
2021/11/12 00:14:44;;;;;;;;;16.00;16.00;;;;;21.93;39.20;102031.31;4973080;28;45470;-62
2021/11/12 00:17:10;;;;;;;;;21.75;16.50;;;;;21.91;39.62;102034.09;4968802;28;47927;-63
2021/11/12 00:19:36;;;;;;;;;16.75;16.75;;;;;21.94;39.14;102030.31;4971859;28;47149;-63
2021/11/12 00:22:02;;;;;;;;;15.50;15.50;;;;;21.93;39.45;102028.66;4970969;28;45560;-63
2021/11/12 00:24:28;;;;;;;;;20.50;18.50;;;;;21.93;39.04;102020.72;4969955;28;45370;-62
2021/11/12 00:26:53;;;;;;;;;18.00;15.25;;;;;21.92;39.68;102017.22;4973563;28;45669;-63
2021/11/12 00:29:19;;;;;;;;;18.00;15.75;;;;;21.94;39.48;102019.72;4972736;28;45449;-63
2021/11/12 00:32:00;;;;;;;;;15.50;15.25;;;;;21.94;39.60;102012.59;4970524;28;45418;-62
2021/11/12 00:44:37;;;;;;;;;20.25;16.00;;;;;21.94;39.50;101990.56;4970367;28;45370;-63
2021/11/12 00:47:06;;;;;;;;;17.00;15.00;;;;;21.94;39.51;101985.25;4971082;28;45332;-63
2021/11/12 00:49:36;;;;;;;;;18.75;17.50;;;;;21.95;39.34;101984.28;4975940;28;45574;-63
2021/11/12 00:52:06;;;;;;;;;17.75;16.00;;;;;21.94;39.17;101991.41;4972144;28;45493;-63
2021/11/12 00:54:32;;;;;;;;;20.25;16.00;;;;;21.95;39.27;101990.44;4971292;28;45645;-63
2021/11/12 00:56:57;;;;;;;;;16.50;15.75;;;;;21.95;39.52;101998.38;4974217;28;45501;-63
2021/11/12 00:59:22;;;;;;;;;17.50;15.25;;;;;21.89;39.46;101993.66;4971104;28;45371;-63
2021/11/12 01:01:48;;;;;;;;;19.75;17.75;;;;;21.98;39.83;102002.53;4971827;28;45880;-63
2021/11/12 01:04:17;;;;;;;;;18.00;17.25;;;;;21.98;39.16;101999.88;4971079;28;45577;-63
2021/11/12 01:06:44;;;;;;;;;16.00;15.25;;;;;21.98;39.24;101999.06;4968576;28;45984;-63
2021/11/12 01:09:11;;;;;;;;;15.50;15.50;;;;;22.00;39.64;101999.72;4969775;28;46453;-63
2021/11/12 01:11:39;;;;;;;;;19.25;14.00;;;;;21.96;39.27;101991.28;4971017;28;45448;-63
2021/11/12 01:14:06;;;;;;;;;15.50;15.50;;;;;21.99;39.03;101998.09;4973328;28;45466;-63
2021/11/12 01:16:31;;;;;;;;;20.75;19.50;;;;;22.00;39.08;101991.78;4968856;28;45639;-63
2021/11/12 01:18:57;;;;;;;;;18.50;15.75;;;;;21.92;39.41;101980.13;4967660;28;46148;-62
2021/11/12 01:21:24;;;;;;;;;18.00;16.00;;;;;21.99;39.17;101996.25;4961644;28;45473;-62
2021/11/12 01:23:52;;;;;;;;;18.25;16.00;;;;;22.00;39.18;101987.31;4956310;28;45304;-62
2021/11/12 01:26:21;;;;;;;;;21.00;20.25;;;;;21.98;39.21;101977.84;4957645;28;45429;-62
2021/11/12 01:28:48;;;;;;;;;16.25;16.00;;;;;21.99;39.30;101987.47;4958571;28;47508;-62
2021/11/12 01:31:14;;;;;;;;;20.00;15.00;;;;;22.01;39.22;101991.66;4958567;28;45427;-62
2021/11/12 01:33:41;;;;;;;;;16.75;14.00;;;;;22.02;38.92;101992.44;4959166;28;45396;-63
2021/11/12 01:38:54;;;;;;;;;17.25;16.00;;;;;21.99;38.96;101984.84;4955572;28;46076;-62
2021/11/12 01:41:20;;;;;;;;;18.25;16.50;;;;;22.00;38.98;101991.78;4957790;28;45496;-62
2021/11/12 01:43:48;;;;;;;;;14.50;12.50;;;;;21.98;38.79;101985.81;4958778;28;45492;-62
2021/11/12 01:53:40;;;;;;;;;12.50;12.50;;;;;21.98;38.93;101983.16;4968820;28;45462;-62
2021/11/12 02:01:22;;;;;;;;;16.75;16.00;;;;;21.96;38.70;101962.94;4970714;28;45369;-62
2021/11/12 02:03:49;;;;;;;;;16.75;16.00;;;;;21.98;39.03;101961.97;4969425;28;45307;-62
2021/11/12 02:06:21;;;;;;;;;17.75;16.75;;;;;21.94;38.68;101951.66;4970702;28;45153;-63
2021/11/12 02:08:47;;;;;;;;;21.00;16.75;;;;;21.96;38.69;101949.69;4970517;28;47250;-62
2021/11/12 02:11:14;;;;;;;;;14.50;14.50;;;;;21.90;38.97;101949.47;4972287;28;45478;-62
2021/11/12 02:13:41;;;;;;;;;18.50;18.50;;;;;21.89;39.16;101945.97;4969225;28;45339;-62
2021/11/12 02:16:10;;;;;;;;;15.00;14.25;;;;;21.95;38.94;101950.69;4970442;28;45471;-62
2021/11/12 02:18:39;;;;;;;;;17.75;16.75;;;;;21.94;38.68;101948.16;4970308;28;46191;-62
2021/11/12 02:23:46;;;;;;;;;17.25;16.25;;;;;21.95;38.96;101942.72;4971514;28;45271;-62
2021/11/12 02:26:18;;;;;;;;;17.50;17.50;;;;;21.94;38.94;101937.56;4973134;28;45552;-62
2021/11/12 02:28:46;;;;;;;;;18.00;16.75;;;;;21.92;38.97;101924.47;4972892;28;46452;-62
2021/11/12 02:31:12;;;;;;;;;15.00;15.00;;;;;21.90;38.53;101922.97;4973254;28;45335;-62
2021/11/12 02:33:38;;;;;;;;;20.50;18.75;;;;;21.95;38.84;101920.69;4972519;28;45519;-62
2021/11/12 02:36:13;;;;;;;;;16.25;15.00;;;;;21.93;38.50;101925.31;4973527;28;45433;-62
2021/11/12 02:38:43;;;;;;;;;18.50;17.50;;;;;21.92;38.26;101915.69;4971171;28;45984;-62
2021/11/12 02:41:08;;;;;;;;;16.75;16.75;;;;;21.88;38.28;101909.06;4974315;28;45335;-62
2021/11/12 02:43:35;;;;;;;;;18.25;15.25;;;;;21.91;38.62;101906.91;4971629;28;45452;-62
2021/11/12 02:46:03;;;;;;;;;16.50;14.25;;;;;21.93;38.53;101912.06;4973263;28;45565;-62
2021/11/12 02:48:33;;;;;;;;;17.00;17.00;;;;;21.92;38.34;101900.63;4972991;28;47492;-62
2021/11/12 02:50:58;;;;;;;;;16.75;15.50;;;;;21.91;38.14;101893.66;4972755;28;45374;-62
2021/11/12 02:53:23;;;;;;;;;13.75;13.75;;;;;21.92;38.55;101895.34;4974013;28;45402;-62
2021/11/12 02:55:50;;;;;;;;;13.75;12.00;;;;;21.92;38.89;101878.59;4972958;28;45387;-62
2021/11/12 02:58:15;;;;;;;;;21.75;16.00;;;;;21.92;38.72;101870.66;4972920;28;46365;-62
2021/11/12 03:00:42;;;;;;;;;20.00;14.75;;;;;21.92;38.27;101866.19;4972810;28;45379;-63
2021/11/12 03:03:08;;;;;;;;;18.00;18.00;;;;;21.92;38.43;101860.06;4973180;28;45449;-62
2021/11/12 03:05:36;;;;;;;;;17.75;16.50;;;;;21.91;38.60;101864.53;4975036;28;45547;-62
2021/11/12 03:08:02;;;;;;;;;20.00;16.00;;;;;21.90;38.47;101860.22;4973194;28;46394;-62
2021/11/12 03:10:28;;;;;;;;;16.25;15.50;;;;;21.91;38.39;101853.91;4972744;28;45461;-62
2021/11/12 03:12:54;;;;;;;;;15.25;14.75;;;;;21.92;38.14;101846.81;4973125;28;45669;-62
2021/11/12 03:15:20;;;;;;;;;18.50;17.00;;;;;21.91;38.51;101842.50;4972826;28;45473;-62
2021/11/12 03:17:49;;;;;;;;;17.75;16.75;;;;;21.85;38.00;101835.97;4973497;28;46645;-63
2021/11/12 03:20:16;;;;;;;;;18.00;16.25;;;;;21.92;38.16;101849.47;4973978;28;45422;-62
2021/11/12 03:23:28;;;;;;;;;17.25;16.75;;;;;21.91;38.19;101845.16;4971212;28;45422;-62
2021/11/12 04:06:20;;;;;;;;;18.50;17.25;;;;;21.85;38.41;101810.31;5052708;28;45569;-63
2021/11/12 05:10:21;;;;;;;;;14.75;14.50;;;;;21.82;37.90;101784.13;4971433;28;45538;-63
2021/11/12 05:26:41;;;;;;;;;18.00;15.50;;;;;21.81;37.72;101774.50;4972874;28;45303;-62
2021/11/12 05:50:17;;;;;;;;;14.25;14.25;;;;;21.79;37.42;101723.50;4971781;28;45350;-62
2021/11/12 05:55:26;;;;;;;;;18.00;16.50;;;;;21.76;37.69;101693.84;4971015;28;45452;-62
2021/11/12 05:57:52;;;;;;;;;18.25;17.25;;;;;21.73;37.69;101681.75;4971886;28;45515;-62
2021/11/12 06:00:19;;;;;;;;;18.75;17.00;;;;;21.80;37.48;101688.09;4973492;28;45450;-62
2021/11/12 06:02:45;;;;;;;;;15.50;15.50;;;;;21.74;37.42;101672.84;4973691;28;45305;-63
2021/11/12 06:05:11;;;;;;;;;16.50;15.75;;;;;21.78;37.42;101682.09;4974902;28;45469;-62
2021/11/12 06:07:37;;;;;;;;;18.25;16.00;;;;;21.77;37.77;101693.72;4971227;28;46567;-62
2021/11/12 06:10:05;;;;;;;;;20.25;16.75;;;;;21.79;37.62;101704.97;4973438;28;45300;-62
2021/11/12 06:12:30;;;;;;;;;21.50;18.00;;;;;21.75;37.56;101708.94;4973868;28;45215;-62
2021/11/12 06:14:56;;;;;;;;;16.75;14.50;;;;;21.77;37.85;101703.47;4973401;28;45222;-62
2021/11/12 06:17:21;;;;;;;;;21.50;17.75;;;;;21.76;37.54;101693.84;4975476;28;45296;-63
2021/11/12 06:19:47;;;;;;;;;21.00;18.25;;;;;21.78;37.25;101697.19;4973227;28;45596;-62
2021/11/12 06:22:12;;;;;;;;;19.50;15.25;;;;;21.75;37.37;101685.09;4973595;28;45229;-62
2021/11/12 06:24:38;;;;;;;;;15.25;15.25;;;;;21.80;37.36;101704.00;4973653;28;45322;-62
2021/11/12 06:27:05;;;;;;;;;19.00;18.75;;;;;21.80;37.42;101681.97;4973410;28;46257;-62
2021/11/12 06:29:31;;;;;;;;;16.25;16.00;;;;;21.80;37.89;101688.09;4975148;28;45467;-62
2021/11/12 06:31:57;;;;;;;;;15.25;15.00;;;;;21.81;37.65;101688.91;4973178;28;45328;-62
2021/11/12 06:34:22;;;;;;;;;18.75;16.75;;;;;21.80;37.35;101674.03;4973154;28;45411;-62
2021/11/12 06:36:48;;;;;;;;;19.25;15.75;;;;;21.79;37.50;101677.66;4971552;28;45750;-63
2021/11/12 06:39:14;;;;;;;;;21.25;19.25;;;;;21.78;37.60;101683.94;4973400;28;45391;-62
2021/11/12 06:49:39;;;;;;;;;15.75;15.00;;;;;21.80;37.23;101679.31;4972981;28;45527;-63
2021/11/12 06:52:05;;;;;;;;;15.25;15.25;;;;;21.79;37.12;101683.78;4973256;28;45473;-64
2021/11/12 06:54:31;;;;;;;;;18.50;17.50;;;;;21.54;36.89;101636.00;4973126;28;45450;-63
2021/11/12 06:56:57;;;;;;;;;17.00;16.00;;;;;21.65;37.04;101649.94;4973029;28;46071;-62
2021/11/12 06:59:22;;;;;;;;;20.25;16.00;;;;;21.80;37.44;101674.03;4974937;28;45403;-62
2021/11/12 07:01:48;;;;;;;;;14.75;14.50;;;;;21.76;37.40;101673.50;4971468;28;45470;-62
2021/11/12 07:04:15;;;;;;;;;16.75;16.50;;;;;21.72;37.16;101665.06;4973056;28;45484;-62
2021/11/12 07:06:41;;;;;;;;;18.25;17.00;;;;;21.73;37.55;101672.00;4972624;28;45635;-62
2021/11/12 07:09:07;;;;;;;;;17.25;15.50;;;;;21.74;37.11;101664.88;4972359;28;45538;-62
2021/11/12 07:11:34;;;;;;;;;16.50;15.25;;;;;21.79;37.37;101683.78;4970976;28;45292;-62
2021/11/12 07:14:00;;;;;;;;;16.25;16.25;;;;;21.79;37.43;101686.44;4972393;28;45374;-63
2021/11/12 07:16:25;;;;;;;;;13.25;11.25;;;;;21.80;36.92;101705.81;4971054;28;46411;-63
2021/11/12 07:18:54;;;;;;;;;20.00;16.50;;;;;21.77;37.05;101703.47;4972889;28;45483;-63
2021/11/12 07:21:22;;;;;;;;;14.75;14.75;;;;;21.79;37.35;101706.78;4972799;28;45518;-62
2021/11/12 07:23:47;;;;;;;;;18.25;16.25;;;;;21.76;37.02;101697.34;4973274;28;45392;-62
2021/11/12 07:26:13;;;;;;;;;18.00;18.00;;;;;21.76;37.15;101697.34;4972323;28;46424;-62
2021/11/12 07:28:40;;;;;;;;;16.25;14.00;;;;;21.79;37.20;101699.69;4972323;28;45504;-62
2021/11/12 07:31:06;;;;;;;;;7.75;5.25;;;;;21.77;36.98;101680.47;4972698;28;45520;-62
2021/11/12 07:33:31;;;;;;;;;16.50;14.25;;;;;21.75;37.34;101666.56;4972612;28;45450;-62
2021/11/12 07:36:13;;;;;;;;;15.00;15.00;;;;;21.78;37.12;101673.34;4972609;28;46597;-62
2021/11/12 07:48:57;;;;;;;;;15.75;14.75;;;;;21.70;37.04;101674.94;4972503;28;45380;-62
2021/11/12 07:51:23;;;;;;;;;15.00;14.00;;;;;21.73;37.04;101695.00;4972663;28;45542;-62
2021/11/12 07:53:49;;;;;;;;;20.25;16.50;;;;;21.70;37.15;101677.59;4973145;28;45280;-62
2021/11/12 07:56:15;;;;;;;;;15.25;14.25;;;;;21.77;37.22;101699.00;4971840;28;46459;-62
2021/11/12 07:58:40;;;;;;;;;15.75;14.75;;;;;21.58;36.76;101668.28;4972131;28;45461;-62
2021/11/12 08:01:05;;;;;;;;;14.00;11.00;;;;;21.68;37.10;101681.41;4972388;28;45712;-62
2021/11/12 08:03:31;;;;;;;;;19.50;19.00;;;;;21.73;37.27;101695.84;4970940;28;45434;-63
2021/11/12 08:05:59;;;;;;;;;18.25;16.25;;;;;21.73;37.34;101695.84;4972289;28;45745;-62
2021/11/12 08:08:26;;;;;;;;;18.00;16.50;;;;;21.73;37.44;101693.19;4974381;28;45316;-62
2021/11/12 08:13:34;;;;;;;;;20.25;16.50;;;;;21.78;37.45;101694.53;4972108;28;45537;-62
2021/11/12 08:21:04;;;;;;;;;17.00;16.00;;;;;21.77;37.12;101671.69;4972135;28;45544;-62
2021/11/12 08:23:42;;;;;;;;;17.75;16.75;;;;;21.78;37.35;101660.13;4974254;28;45618;-62
2021/11/12 08:26:13;;;;;;;;;16.75;15.50;;;;;21.77;37.29;101661.09;4973209;28;45441;-62
2021/11/12 08:34:27;;;;;;;;;17.75;15.75;;;;;21.79;36.75;101680.28;5043624;28;45539;-62
2021/11/12 08:42:20;;;;;;;;;17.50;16.50;;;;;21.73;37.00;101682.59;5017722;28;45477;-62
2021/11/12 08:47:40;;;;;;;;;16.00;13.75;;;;;21.77;37.04;101676.97;5005890;28;46149;-62
2021/11/12 08:50:13;;;;;;;;;18.25;15.75;;;;;21.77;36.70;101661.94;4992582;28;45456;-63
2021/11/12 08:52:40;;;;;;;;;15.50;14.25;;;;;21.81;37.33;101667.72;4987268;28;45474;-62
2021/11/12 08:55:07;;;;;;;;;17.25;15.25;;;;;21.82;36.89;101670.22;4994766;28;45336;-63
2021/11/12 08:57:33;;;;;;;;;16.75;15.00;;;;;21.85;36.93;101675.22;4994626;28;47569;-62
2021/11/12 08:59:59;;;;;;;;;19.50;15.00;;;;;21.91;37.16;101671.09;4992255;28;45605;-62
2021/11/12 09:02:26;;;;;;;;;17.00;15.50;;;;;21.96;36.81;101668.00;4998091;28;45507;-62
2021/11/12 09:04:53;;;;;;;;;17.25;16.25;;;;;21.98;37.02;101666.03;4995839;28;45548;-62
2021/11/12 09:07:19;;;;;;;;;8.50;8.00;;;;;22.00;36.83;101653.44;4995546;28;46394;-62
2021/11/12 09:09:51;;;;;;;;;15.00;15.00;;;;;22.03;36.88;101657.59;4997963;28;46137;-62
2021/11/12 09:12:19;;;;;;;;;16.50;14.00;;;;;22.06;36.97;101657.25;5030092;28;45403;-62
2021/11/12 09:14:47;;;;;;;;;17.00;15.25;;;;;22.09;37.13;101643.69;5032418;28;45484;-62
2021/11/12 09:17:15;;;;;;;;;24.00;17.00;;;;;22.11;37.06;101635.56;5032166;28;45518;-62
2021/11/12 09:20:01;;;;;;;;;16.25;15.25;;;;;22.14;37.07;101629.97;5031057;28;45447;-62
2021/11/12 09:22:32;;;;;;;;;18.25;16.00;;;;;22.17;36.41;101641.06;5029180;28;45431;-62
2021/11/12 09:24:58;;;;;;;;;13.00;13.00;;;;;22.17;36.45;101630.44;4987455;28;45471;-62
2021/11/12 09:27:24;;;;;;;;;14.67;14.67;;;;;22.20;36.35;101629.28;4972284;28;45416;-62
2021/11/12 09:29:50;;;;;;;;;14.75;13.00;;;;;22.21;36.83;101630.97;4971160;28;45820;-62
2021/11/12 09:32:17;;;;;;;;;17.50;16.75;;;;;22.24;36.65;101641.25;4972469;28;45376;-62
2021/11/12 09:34:43;;;;;;;;;22.75;19.00;;;;;22.10;36.73;101602.94;4970717;28;45563;-62
2021/11/12 09:37:10;;;;;;;;;15.25;14.25;;;;;22.26;36.70;101631.31;4988635;28;47984;-61
2021/11/12 09:39:40;;;;;;;;;16.00;16.00;;;;;22.30;36.57;101629.19;4971261;28;45564;-62
2021/11/12 09:42:07;;;;;;;;;18.00;17.50;;;;;22.30;36.11;101623.88;4954420;28;45415;-62
2021/11/12 09:44:34;;;;;;;;;16.00;14.00;;;;;22.32;36.38;101626.34;4972911;28;45408;-62
2021/11/12 09:47:00;;;;;;;;;16.25;15.00;;;;;22.32;35.94;101621.03;4970441;28;46455;-62
2021/11/12 09:49:26;;;;;;;;;18.75;16.75;;;;;22.33;36.23;101618.22;4970462;28;45304;-62
2021/11/12 09:51:51;;;;;;;;;14.25;14.00;;;;;22.32;36.60;101602.50;4968527;28;45462;-62
2021/11/12 09:54:18;;;;;;;;;16.00;14.75;;;;;22.36;36.35;101609.94;4970613;28;45486;-62
2021/11/12 09:56:43;;;;;;;;;19.25;17.75;;;;;22.37;36.01;101610.78;4971185;28;46512;-62
2021/11/12 09:59:09;;;;;;;;;20.00;18.75;;;;;22.34;36.02;101603.97;4969940;28;45305;-62
2021/11/12 10:01:36;;;;;;;;;15.00;15.00;;;;;22.33;36.39;101596.22;4970550;28;45765;-62
2021/11/12 10:04:09;;;;;;;;;19.25;13.50;;;;;22.38;36.15;101599.16;4970299;28;45558;-62
2021/11/12 10:06:37;;;;;;;;;16.00;16.00;;;;;22.34;36.05;101598.69;4969491;28;45689;-62
2021/11/12 10:09:12;;;;;;;;;18.25;15.00;;;;;22.39;35.88;101593.72;4970316;28;45463;-61
2021/11/12 10:11:47;;;;;;;;;16.00;15.00;;;;;22.38;36.35;101591.22;4968489;28;45485;-62
2021/11/12 10:14:13;;;;;;;;;20.00;16.00;;;;;22.40;35.95;101595.34;4971262;28;45433;-62
2021/11/12 10:16:42;;;;;;;;;16.25;15.50;;;;;22.40;36.50;101587.41;4969626;28;46415;-62
2021/11/12 10:19:14;;;;;;;;;17.25;15.00;;;;;22.41;35.93;101593.53;4969769;28;45305;-62
2021/11/12 10:21:54;;;;;;;;;17.00;16.75;;;;;22.40;35.95;101589.25;4969632;28;45467;-62
2021/11/12 10:24:31;;;;;;;;;12.25;12.25;;;;;22.40;35.95;101597.19;4956658;28;45756;-62
2021/11/12 10:27:06;;;;;;;;;17.00;15.50;;;;;22.39;35.96;101593.72;4969601;28;45493;-62
2021/11/12 10:29:35;;;;;;;;;15.75;15.50;;;;;22.33;36.21;101572.34;4971715;28;45399;-62
2021/11/12 10:32:05;;;;;;;;;15.00;14.00;;;;;22.34;36.30;101580.13;4968031;28;45308;-62
2021/11/12 10:34:34;;;;;;;;;14.00;13.00;;;;;22.38;35.61;101576.13;4969699;28;45532;-62
2021/11/12 10:37:11;;;;;;;;;17.00;16.25;;;;;22.28;36.04;101557.75;4968120;28;48506;-62
2021/11/12 10:39:40;;;;;;;;;18.00;16.50;;;;;22.36;35.85;101572.81;4968146;28;45587;-63
2021/11/12 10:42:28;;;;;;;;;19.75;15.25;;;;;22.37;35.69;101571.00;4954228;28;45503;-63
2021/11/12 10:44:57;;;;;;;;;19.00;16.00;;;;;22.35;35.64;101565.06;4971556;28;45311;-63
2021/11/12 10:47:24;;;;;;;;;17.75;15.25;;;;;22.35;35.16;101571.16;4974316;28;45354;-63
2021/11/12 10:50:03;;;;;;;;;17.50;17.25;;;;;22.33;35.52;101553.78;4971988;28;45774;-63
2021/11/12 10:52:30;;;;;;;;;19.00;16.00;;;;;22.34;35.53;101550.97;4972602;28;45335;-63
2021/11/12 10:55:11;;;;;;;;;19.50;14.75;;;;;22.32;34.94;101552.97;4972630;28;45490;-63
2021/11/12 10:57:44;;;;;;;;;17.00;15.25;;;;;22.30;35.03;101554.94;4972470;28;45526;-63
2021/11/12 11:00:15;;;;;;;;;16.00;14.75;;;;;22.31;35.43;101553.94;4957645;28;45285;-63
2021/11/12 11:02:57;;;;;;;;;16.25;15.50;;;;;22.32;35.53;101552.97;4973836;28;45363;-64
2021/11/12 11:05:42;;;;;;;;;16.00;16.00;;;;;22.32;35.50;101552.13;4972786;28;45521;-63
2021/11/12 11:08:13;;;;;;;;;12.50;12.25;;;;;22.32;35.09;101538.88;4973834;28;45677;-64
2021/11/12 11:10:44;;;;;;;;;14.25;13.75;;;;;22.26;35.58;101527.09;4970910;28;45476;-63
2021/11/12 11:13:11;;;;;;;;;15.75;14.75;;;;;22.32;35.51;101525.59;4970445;28;45313;-64
2021/11/12 11:15:46;;;;;;;;;13.75;12.50;;;;;22.32;35.43;101528.25;4972494;28;45503;-63
2021/11/12 11:18:27;;;;;;;;;17.50;14.75;;;;;22.31;35.20;101519.47;4957982;28;46313;-63
2021/11/12 11:23:58;;;;;;;;;18.75;16.25;;;;;22.32;35.63;101501.75;4971174;28;45421;-63
2021/11/12 11:26:26;;;;;;;;;13.00;12.00;;;;;22.31;35.51;101500.91;4973180;28;45487;-63
2021/11/12 11:28:57;;;;;;;;;14.75;14.75;;;;;22.31;35.16;101494.78;4971696;28;47374;-63
2021/11/12 11:31:23;;;;;;;;;15.00;12.25;;;;;22.25;35.74;101475.09;4971789;28;45434;-63
2021/11/12 11:33:51;;;;;;;;;13.50;13.50;;;;;22.25;35.19;101473.25;4972181;28;45530;-63
2021/11/12 11:36:22;;;;;;;;;17.50;14.00;;;;;22.28;35.14;101486.16;4972320;28;45444;-63
2021/11/12 11:38:50;;;;;;;;;16.50;15.50;;;;;22.27;35.32;101487.19;4972504;28;46250;-64
2021/11/12 11:41:20;;;;;;;;;12.75;12.00;;;;;22.28;35.75;101485.34;4973702;28;45393;-64
2021/11/12 11:43:47;;;;;;;;;13.75;13.25;;;;;22.27;35.25;101487.19;4971967;28;45407;-63
2021/11/12 11:46:38;;;;;;;;;14.00;13.75;;;;;22.29;35.79;101489.66;4971769;28;45535;-63
2021/11/12 11:49:13;;;;;;;;;16.00;15.50;;;;;22.26;35.90;101490.81;4967356;27;46358;-63
2021/11/12 11:52:00;;;;;;;;;12.75;12.00;;;;;22.27;35.80;101487.19;4972012;28;45476;-63
2021/11/12 11:54:28;;;;;;;;;13.75;13.75;;;;;22.27;35.66;101487.19;4957413;28;45368;-63
2021/11/12 11:56:57;;;;;;;;;17.00;15.75;;;;;22.26;35.49;101488.16;4971610;28;45664;-63
2021/11/12 11:59:29;;;;;;;;;12.50;11.75;;;;;22.26;35.43;101484.69;4971532;28;45419;-63
2021/11/12 12:02:00;;;;;;;;;12.00;12.00;;;;;22.25;35.67;101489.16;4971230;28;45708;-64
2021/11/12 12:04:46;;;;;;;;;17.50;14.75;;;;;22.25;35.92;101481.19;4966816;28;46783;-63
2021/11/12 12:07:16;;;;;;;;;12.75;12.00;;;;;22.25;35.37;101483.03;4972293;28;45709;-64
2021/11/12 12:09:48;;;;;;;;;13.75;13.00;;;;;22.25;35.58;101486.50;4969079;28;46330;-64
2021/11/12 12:12:29;;;;;;;;;14.00;13.25;;;;;22.26;35.83;101480.22;4975524;28;45613;-63
2021/11/12 12:15:17;;;;;;;;;13.00;13.00;;;;;22.22;36.03;101475.41;4974706;28;45620;-64
2021/11/12 12:17:47;;;;;;;;;12.25;12.25;;;;;22.26;36.29;101469.63;4972888;28;45474;-64
2021/11/12 12:33:43;;;;;;;;;10.75;10.00;;;;;22.31;36.19;101452.38;4972449;28;45354;-64
2021/11/12 13:25:46;;;;;;;;;13.50;13.00;;;;;22.24;36.87;101373.53;4959112;28;45486;-65
2021/11/12 13:28:31;;;;;;;;;15.50;12.75;;;;;22.23;36.50;101368.38;4966553;27;45476;-64
2021/11/12 13:30:57;;;;;;;;;13.00;13.00;;;;;22.23;36.50;101369.22;4966021;28;45967;-65
2021/11/12 13:33:31;;;;;;;;;14.00;12.75;;;;;22.23;36.80;101374.53;4968961;28;45400;-64
2021/11/12 13:35:58;;;;;;;;;13.50;13.00;;;;;22.23;36.27;101365.72;4969599;28;45248;-65
2021/11/12 13:38:35;;;;;;;;;12.25;11.25;;;;;22.21;36.59;101371.22;4968256;28;45236;-65
2021/11/12 13:41:07;;;;;;;;;8.00;6.00;;;;;22.21;36.75;101367.72;4970563;28;45504;-64
2021/11/12 13:43:35;;;;;;;;;14.25;14.25;;;;;22.21;36.43;101373.88;4971879;28;45597;-65
2021/11/12 13:46:01;;;;;;;;;13.00;13.00;;;;;22.18;36.52;101360.94;4970284;28;45408;-64
2021/11/12 13:48:28;;;;;;;;;11.50;11.50;;;;;22.21;36.85;101363.25;4969109;28;47635;-64
2021/11/12 13:51:03;;;;;;;;;14.00;13.75;;;;;22.22;36.91;101361.44;4970085;28;45520;-64
2021/11/12 13:53:32;;;;;;;;;12.50;12.50;;;;;22.23;37.03;101371.03;4972617;28;45364;-65
2021/11/12 13:56:00;;;;;;;;;12.25;11.75;;;;;22.22;37.03;101377.34;4968864;28;45427;-65
2021/11/12 13:58:26;;;;;;;;;12.50;12.50;;;;;22.23;36.99;101377.16;4969811;28;46155;-64
2021/11/12 14:00:56;;;;;;;;;12.75;12.00;;;;;22.23;36.52;101371.88;4969891;28;45391;-64
2021/11/12 14:03:35;;;;;;;;;15.75;13.00;;;;;22.17;37.16;101375.22;4970281;28;45450;-64
2021/11/12 14:06:08;;;;;;;;;10.00;8.50;;;;;22.22;36.82;101372.88;4970119;28;45429;-65
2021/11/12 14:08:38;;;;;;;;;14.25;13.00;;;;;22.23;37.03;101376.34;4967651;28;46055;-65
2021/11/12 14:11:25;;;;;;;;;14.75;14.25;;;;;22.19;37.08;101383.81;4968860;28;45525;-64
2021/11/12 14:13:57;;;;;;;;;12.25;10.25;;;;;22.22;36.83;101380.00;4969703;28;45370;-64
2021/11/12 14:16:36;;;;;;;;;12.25;11.00;;;;;22.23;37.09;101393.06;4969941;28;45415;-65
2021/11/12 14:22:17;;;;;;;;;13.00;11.25;;;;;22.22;36.85;101382.66;4972991;28;45625;-64
2021/11/12 14:24:57;;;;;;;;;15.00;15.00;;;;;22.19;37.13;101375.88;4962097;28;45427;-64
2021/11/12 14:27:32;;;;;;;;;12.50;11.75;;;;;22.17;36.83;101376.00;4970925;28;45336;-64
2021/11/12 14:54:33;;;;;;;;;13.75;10.00;;;;;22.19;37.72;101367.91;4955413;28;45647;-64
2021/11/12 14:57:01;;;;;;;;;13.75;12.75;;;;;22.16;37.25;101361.13;4953760;28;45420;-64
2021/11/12 14:59:27;;;;;;;;;12.00;12.00;;;;;22.14;37.71;101347.22;4957522;28;45510;-63
2021/11/12 15:01:52;;;;;;;;;13.25;13.00;;;;;22.17;37.92;101354.81;4956482;28;46450;-64
2021/11/12 15:04:18;;;;;;;;;12.00;10.50;;;;;22.12;37.97;101353.69;4957162;28;45616;-64
2021/11/12 15:06:44;;;;;;;;;15.50;15.25;;;;;22.12;38.10;101351.84;4957147;28;45467;-64
2021/11/12 15:09:23;;;;;;;;;15.00;13.50;;;;;22.10;38.25;101339.75;4952904;28;45488;-64
2021/11/12 15:11:51;;;;;;;;;14.25;12.50;;;;;22.14;37.68;101352.53;4954784;28;45511;-64
2021/11/12 15:14:25;;;;;;;;;13.75;12.50;;;;;22.16;37.90;101345.22;4957400;28;45440;-64
2021/11/12 15:16:50;;;;;;;;;14.25;13.00;;;;;22.10;37.82;101345.06;4956928;28;45400;-64
2021/11/12 15:19:18;;;;;;;;;12.00;12.00;;;;;22.14;38.24;101351.69;4962374;28;45516;-64
2021/11/12 15:21:56;;;;;;;;;14.25;13.75;;;;;22.15;37.85;101364.75;4972837;28;45679;-64
2021/11/12 15:24:43;;;;;;;;;13.75;13.50;;;;;22.15;37.94;101346.22;4972747;28;45577;-64
2021/11/12 15:28:21;;;;;;;;;13.00;11.50;;;;;22.05;37.96;101343.75;4973984;28;45534;-64
2021/11/12 15:30:17;;;;;;;;;16.00;13.00;;;;;22.13;38.21;101348.19;4985064;28;45426;-62
2021/11/12 15:32:47;;;;;;;;;11.75;10.25;;;;;22.13;38.06;101347.38;4970961;28;46074;-64
2021/11/12 15:35:19;;;;;;;;;15.50;13.00;;;;;22.13;38.45;101357.97;4973729;28;45532;-64
2021/11/12 15:40:37;;;;;;;;;12.25;11.25;;;;;22.12;38.32;101354.50;4972250;28;45440;-64
2021/11/12 15:45:50;;;;;;;;;14.25;14.00;;;;;22.12;38.40;101356.34;4971013;28;45474;-64
2021/11/12 15:48:19;;;;;;;;;12.25;12.25;;;;;22.12;38.15;101351.03;4956940;28;45540;-64
2021/11/12 16:01:03;;;;;;;;;13.25;12.50;;;;;22.10;38.78;101337.94;4972304;28;45421;-64
2021/11/12 16:06:45;;;;;;;;;16.75;14.00;;;;;22.07;38.60;101339.09;4955973;28;45351;-64
2021/11/12 16:09:33;;;;;;;;;13.00;13.00;;;;;22.09;38.77;101338.94;4955265;28;45275;-64
2021/11/12 16:14:52;;;;;;;;;13.75;13.75;;;;;22.07;38.30;101340.91;4970212;28;45352;-64
2021/11/12 16:25:11;;;;;;;;;13.75;12.00;;;;;22.05;38.39;101316.41;4970256;28;46029;-64
2021/11/12 16:27:48;;;;;;;;;14.00;12.00;;;;;22.04;38.77;101320.88;4972018;28;45474;-64
2021/11/12 16:30:17;;;;;;;;;11.75;10.00;;;;;22.06;39.01;101318.09;4957507;28;45608;-64
2021/11/12 16:32:53;;;;;;;;;12.25;11.75;;;;;22.00;39.16;101321.41;4973346;28;45489;-64
2021/11/12 16:35:22;;;;;;;;;12.25;11.50;;;;;22.05;38.53;101329.66;4974202;28;46470;-63
2021/11/12 16:37:51;;;;;;;;;11.25;11.25;;;;;22.01;38.48;101323.91;4971566;28;45554;-64
2021/11/12 16:40:28;;;;;;;;;11.25;11.25;;;;;22.03;39.00;101327.19;4970561;28;45327;-64
2021/11/12 16:43:08;;;;;;;;;12.25;12.25;;;;;21.99;38.93;101309.97;4971877;28;45423;-64
2021/11/12 16:48:43;;;;;;;;;15.50;11.00;;;;;21.99;38.63;101311.81;5046052;28;45608;-65
2021/11/12 16:51:27;;;;;;;;;15.75;12.75;;;;;22.04;38.76;101325.38;5016179;28;45495;-65
2021/11/12 16:59:17;;;;;;;;;14.00;12.25;;;;;22.03;38.81;101323.72;5028905;28;45411;-64
2021/11/12 17:04:38;;;;;;;;;13.50;12.25;;;;;22.04;38.92;101320.88;5021197;28;45548;-65
2021/11/12 17:07:37;;;;;;;;;12.75;10.50;;;;;22.03;38.79;101313.13;5016783;28;46936;-63
2021/11/12 17:10:09;;;;;;;;;11.25;9.50;;;;;21.88;38.99;101289.97;5017255;28;45480;-64
2021/11/12 17:18:00;;;;;;;;;10.00;10.00;;;;;22.03;39.02;101326.38;5014810;28;45459;-64
2021/11/12 17:47:19;;;;;;;;;12.25;11.50;;;;;21.98;39.17;101323.38;4971152;28;45288;-64
2021/11/12 21:45:06;;;;;;;;;8.50;8.50;;;;;22.10;40.85;101269.03;4969785;28;45384;-63